createdAt,value
2019-05-16T00:05:53.292Z,10.30
2019-05-16T00:11:48.916Z,10.20
2019-05-16T00:17:53.226Z,10.10
2019-05-16T00:23:58.628Z,10.10
2019-05-16T00:30:03.098Z,10.10
2019-05-16T00:36:09.247Z,10.00
2019-05-16T00:42:13.537Z,10.00
2019-05-16T00:48:18.176Z,9.80
2019-05-16T00:54:22.665Z,9.70
2019-05-16T01:00:51.229Z,9.60
2019-05-16T01:06:55.487Z,9.40
2019-05-16T01:12:59.835Z,9.40
2019-05-16T01:19:04.054Z,9.30
2019-05-16T01:25:09.426Z,9.30
2019-05-16T01:31:14.163Z,9.30
2019-05-16T01:37:18.638Z,9.30
2019-05-16T01:43:23.001Z,9.20
2019-05-16T01:49:27.979Z,9.20
2019-05-16T01:55:32.299Z,9.20
2019-05-16T02:01:37.821Z,9.10
2019-05-16T02:07:42.115Z,9.10
2019-05-16T02:13:48.435Z,9.10
2019-05-16T02:19:52.559Z,9.10
2019-05-16T02:25:57.962Z,9.10
2019-05-16T02:32:02.410Z,9.00
2019-05-16T02:38:06.678Z,9.00
2019-05-16T02:44:12.085Z,9.00
2019-05-16T02:50:16.538Z,9.00
2019-05-16T02:56:21.273Z,9.00
2019-05-16T03:02:25.691Z,8.90
2019-05-16T03:08:32.004Z,8.80
2019-05-16T03:14:36.085Z,8.70
2019-05-16T03:20:40.767Z,8.70
2019-05-16T03:26:45.283Z,8.70
2019-05-16T03:32:54.195Z,8.60
2019-05-16T03:38:55.457Z,8.60
2019-05-16T03:45:02.131Z,8.60
2019-05-16T03:51:05.907Z,8.60
2019-05-16T03:57:11.567Z,8.60
2019-05-16T04:03:16.144Z,8.50
2019-05-16T04:09:21.102Z,8.50
2019-05-16T04:15:25.602Z,8.50
2019-05-16T04:21:32.297Z,8.40
2019-05-16T04:27:35.832Z,8.50
2019-05-16T04:33:41.489Z,8.50
2019-05-16T04:39:46.150Z,8.50
2019-05-16T04:45:52.273Z,8.60
2019-05-16T04:51:56.394Z,8.70
2019-05-16T04:58:01.423Z,9.10
2019-05-16T05:04:10.928Z,9.60
2019-05-16T05:10:12.252Z,10.30
2019-05-16T05:16:16.532Z,10.60
2019-05-16T05:22:20.785Z,10.90
2019-05-16T05:28:25.006Z,11.40
2019-05-16T05:34:30.487Z,11.90
2019-05-16T05:40:35.593Z,12.10
2019-05-16T05:46:40.188Z,12.60
2019-05-16T05:52:46.254Z,12.90
2019-05-16T05:58:51.231Z,13.50
2019-05-16T06:04:55.625Z,13.50
2019-05-16T06:11:00.761Z,14.00
2019-05-16T06:17:05.496Z,14.10
2019-05-16T06:23:10.602Z,14.60
2019-05-16T06:29:15.082Z,14.30
2019-05-16T06:35:20.540Z,14.90
2019-05-16T06:41:25.321Z,14.80
2019-05-16T06:47:30.552Z,15.60
2019-05-16T06:53:34.804Z,16.00
2019-05-16T06:59:40.466Z,16.20
2019-05-16T07:05:44.846Z,16.90
2019-05-16T07:11:50.474Z,17.00
2019-05-16T07:17:54.832Z,16.70
2019-05-16T07:24:00.126Z,17.00
2019-05-16T07:30:04.736Z,16.60
2019-05-16T07:36:09.914Z,17.10
2019-05-16T07:42:14.444Z,17.70
2019-05-16T07:48:21.651Z,17.80
2019-05-16T07:54:24.637Z,18.10
2019-05-16T08:00:47.854Z,17.90
2019-05-16T08:06:34.840Z,18.40
2019-05-16T08:12:40.644Z,18.10
2019-05-16T08:18:45.382Z,18.70
2019-05-16T08:24:50.529Z,18.40
2019-05-16T08:30:54.912Z,18.70
2019-05-16T08:37:01.125Z,18.90
2019-05-16T08:43:05.511Z,18.50
2019-05-16T08:49:12.341Z,18.30
2019-05-16T08:55:16.077Z,19.10
2019-05-16T09:01:21.754Z,18.90
2019-05-16T09:07:26.181Z,19.00
2019-05-16T09:13:30.387Z,18.80
2019-05-16T09:19:36.694Z,18.80
2019-05-16T09:25:40.519Z,18.80
2019-05-16T09:32:04.502Z,18.70
2019-05-16T09:37:53.531Z,18.90
2019-05-16T09:44:04.630Z,18.50
2019-05-16T09:50:04.009Z,18.90
2019-05-16T09:56:08.207Z,18.40
2019-05-16T10:02:12.700Z,18.40
2019-05-16T10:08:17.461Z,17.80
2019-05-16T10:14:21.833Z,17.80
2019-05-16T10:20:27.370Z,18.40
2019-05-16T10:26:31.953Z,18.10
2019-05-16T10:32:36.499Z,18.10
2019-05-16T10:38:42.082Z,17.70
2019-05-16T10:44:48.442Z,17.40
2019-05-16T10:50:52.341Z,17.60
2019-05-16T10:56:57.608Z,17.50
2019-05-16T11:03:02.538Z,17.70
2019-05-16T11:09:07.347Z,17.30
2019-05-16T11:15:12.022Z,17.10
2019-05-16T11:21:18.905Z,17.20
2019-05-16T11:27:22.509Z,17.00
2019-05-16T11:33:28.245Z,17.50
2019-05-16T11:39:32.670Z,17.50
2019-05-16T11:45:36.945Z,17.60
2019-05-16T11:51:41.104Z,17.10
2019-05-16T11:57:47.396Z,17.50
2019-05-16T12:03:51.178Z,16.80
2019-05-16T12:09:55.818Z,16.70
2019-05-16T12:16:00.078Z,16.70
2019-05-16T12:22:06.856Z,17.00
2019-05-16T12:28:10.330Z,17.10
2019-05-16T12:34:14.602Z,16.80
2019-05-16T12:40:18.959Z,16.90
2019-05-16T12:46:23.608Z,17.10
2019-05-16T12:52:27.856Z,17.40
2019-05-16T12:58:37.971Z,17.20
2019-05-16T13:04:38.803Z,17.10
2019-05-16T13:10:42.999Z,17.30
2019-05-16T13:16:47.573Z,17.20
2019-05-16T13:22:52.151Z,17.30
2019-05-16T13:28:57.787Z,17.30
2019-05-16T13:35:02.754Z,16.90
2019-05-16T13:41:07.570Z,16.80
2019-05-16T13:47:12.113Z,17.00
2019-05-16T13:53:16.440Z,16.90
2019-05-16T13:59:20.777Z,17.10
2019-05-16T14:05:26.772Z,17.40
2019-05-16T14:11:31.165Z,17.20
2019-05-16T14:17:37.101Z,17.20
2019-05-16T14:23:41.287Z,17.40
2019-05-16T14:29:47.647Z,17.10
2019-05-16T14:35:51.565Z,17.40
2019-05-16T14:41:56.791Z,17.10
2019-05-16T14:48:01.236Z,17.50
2019-05-16T14:54:07.554Z,17.10
2019-05-16T15:00:12.645Z,17.10
2019-05-16T15:06:18.250Z,17.00
2019-05-16T15:12:22.732Z,17.30
2019-05-16T15:18:27.857Z,17.30
2019-05-16T15:24:32.332Z,17.10
2019-05-16T15:30:39.293Z,16.90
2019-05-16T15:36:42.720Z,17.10
2019-05-16T15:42:46.938Z,17.20
2019-05-16T15:48:51.495Z,17.20
2019-05-16T15:54:57.153Z,17.00
2019-05-16T16:01:01.436Z,17.10
2019-05-16T16:07:07.639Z,17.50
2019-05-16T16:13:11.829Z,17.20
2019-05-16T16:19:17.475Z,17.30
2019-05-16T16:25:21.886Z,17.30
2019-05-16T16:31:27.370Z,17.20
2019-05-16T16:37:31.805Z,16.90
2019-05-16T16:43:37.345Z,17.00
2019-05-16T16:49:41.845Z,16.90
2019-05-16T16:55:47.606Z,16.80
2019-05-16T17:01:52.015Z,17.30
2019-05-16T17:07:57.133Z,17.00
2019-05-16T17:14:01.519Z,16.80
2019-05-16T17:20:07.578Z,16.70
2019-05-16T17:26:12.395Z,16.70
2019-05-16T17:32:16.758Z,16.90
2019-05-16T17:38:21.507Z,16.60
2019-05-16T17:44:27.095Z,16.50
2019-05-16T17:50:31.630Z,16.70
2019-05-16T17:56:37.018Z,16.50
2019-05-16T18:02:41.464Z,16.40
2019-05-16T18:08:46.869Z,16.40
2019-05-16T18:14:51.404Z,16.40
2019-05-16T18:21:01.017Z,16.30
2019-05-16T18:27:01.629Z,16.30
2019-05-16T18:33:07.310Z,16.20
2019-05-16T18:39:11.870Z,15.70
2019-05-16T18:45:16.603Z,15.50
2019-05-16T18:51:21.112Z,15.40
2019-05-16T18:57:26.909Z,15.20
2019-05-16T19:03:31.251Z,15.00
2019-05-16T19:09:37.467Z,14.80
2019-05-16T19:15:41.533Z,14.70
2019-05-16T19:21:45.844Z,14.60
2019-05-16T19:27:50.189Z,14.40
2019-05-16T19:33:56.569Z,14.30
2019-05-16T19:40:00.508Z,14.10
2019-05-16T19:46:04.893Z,14.00
2019-05-16T19:52:09.103Z,13.80
2019-05-16T19:58:13.487Z,13.70
2019-05-16T20:04:18.538Z,13.60
2019-05-16T20:10:23.021Z,13.40
2019-05-16T20:16:27.491Z,13.30
2019-05-16T20:22:32.177Z,13.30
2019-05-16T20:28:37.056Z,13.20
2019-05-16T20:34:41.486Z,13.10
2019-05-16T20:40:46.593Z,13.10
2019-05-16T20:46:51.061Z,12.90
2019-05-16T20:52:57.276Z,12.80
2019-05-16T20:59:01.399Z,12.70
2019-05-16T21:05:06.683Z,12.60
2019-05-16T21:11:11.185Z,12.50
2019-05-16T21:17:17.250Z,12.50
2019-05-16T21:23:21.329Z,12.40
2019-05-16T21:29:27.641Z,12.40
2019-05-16T21:35:31.687Z,12.40
2019-05-16T21:41:36.597Z,12.40
2019-05-16T21:47:41.153Z,12.40
2019-05-16T21:53:47.158Z,12.40
2019-05-16T21:59:51.653Z,12.50
2019-05-16T22:05:57.583Z,12.50
2019-05-16T22:12:02.402Z,12.50
2019-05-16T22:18:07.409Z,12.40
2019-05-16T22:24:11.832Z,12.40
2019-05-16T22:30:17.510Z,12.40
2019-05-16T22:36:21.787Z,12.40
2019-05-16T22:42:26.783Z,12.30
2019-05-16T22:48:31.514Z,12.20
2019-05-16T22:54:37.036Z,12.10
2019-05-16T23:00:41.583Z,12.20
2019-05-16T23:06:47.049Z,12.20
2019-05-16T23:12:51.326Z,12.20
2019-05-16T23:18:57.086Z,12.10
2019-05-16T23:25:01.507Z,12.10
2019-05-16T23:31:06.468Z,12.10
2019-05-16T23:37:10.816Z,12.10
2019-05-16T23:43:15.094Z,12.10
2019-05-16T23:49:19.376Z,12.00
2019-05-16T23:55:23.562Z,11.90
